sensor_id;sensor_type;location;lat;lon;timestamp;P1;durP1;ratioP1;P2;durP2;ratioP2
13985;SDS011;7067;51.832;8.296;2024-03-17T00:02:21;5.95;;;3.97;;
13985;SDS011;7067;51.832;8.296;2024-03-17T00:04:46;6.20;;;3.80;;
13985;SDS011;7067;51.832;8.296;2024-03-17T00:07:12;5.68;;;2.95;;
13985;SDS011;7067;51.832;8.296;2024-03-17T00:09:38;4.55;;;2.90;;
13985;SDS011;7067;51.832;8.296;2024-03-17T00:12:03;5.00;;;2.67;;
13985;SDS011;7067;51.832;8.296;2024-03-17T00:14:29;6.43;;;2.75;;
13985;SDS011;7067;51.832;8.296;2024-03-17T00:16:54;5.03;;;3.10;;
13985;SDS011;7067;51.832;8.296;2024-03-17T00:19:20;3.53;;;2.83;;
13985;SDS011;7067;51.832;8.296;2024-03-17T00:21:47;3.47;;;2.97;;
13985;SDS011;7067;51.832;8.296;2024-03-17T00:24:15;4.53;;;3.40;;
13985;SDS011;7067;51.832;8.296;2024-03-17T00:26:41;6.35;;;3.58;;
13985;SDS011;7067;51.832;8.296;2024-03-17T00:29:06;7.72;;;3.50;;
13985;SDS011;7067;51.832;8.296;2024-03-17T00:31:31;8.45;;;4.03;;
13985;SDS011;7067;51.832;8.296;2024-03-17T00:33:57;3.83;;;2.55;;
13985;SDS011;7067;51.832;8.296;2024-03-17T00:36:22;7.47;;;3.13;;
13985;SDS011;7067;51.832;8.296;2024-03-17T00:38:48;6.63;;;3.30;;
13985;SDS011;7067;51.832;8.296;2024-03-17T00:41:13;6.15;;;3.67;;
13985;SDS011;7067;51.832;8.296;2024-03-17T00:43:39;6.70;;;3.42;;
13985;SDS011;7067;51.832;8.296;2024-03-17T00:46:04;4.38;;;3.60;;
13985;SDS011;7067;51.832;8.296;2024-03-17T00:48:29;3.85;;;3.10;;
13985;SDS011;7067;51.832;8.296;2024-03-17T00:50:56;5.70;;;3.20;;
13985;SDS011;7067;51.832;8.296;2024-03-17T00:53:22;9.93;;;3.83;;
13985;SDS011;7067;51.832;8.296;2024-03-17T00:55:54;5.70;;;3.30;;
13985;SDS011;7067;51.832;8.296;2024-03-17T00:58:23;3.65;;;3.05;;
13985;SDS011;7067;51.832;8.296;2024-03-17T01:00:48;4.20;;;3.20;;
13985;SDS011;7067;51.832;8.296;2024-03-17T01:03:14;5.22;;;3.55;;
13985;SDS011;7067;51.832;8.296;2024-03-17T01:05:40;7.57;;;3.45;;
13985;SDS011;7067;51.832;8.296;2024-03-17T01:08:19;4.68;;;3.45;;
13985;SDS011;7067;51.832;8.296;2024-03-17T01:10:45;3.42;;;3.13;;
13985;SDS011;7067;51.832;8.296;2024-03-17T01:13:14;6.20;;;3.15;;
13985;SDS011;7067;51.832;8.296;2024-03-17T01:15:40;4.25;;;3.05;;
13985;SDS011;7067;51.832;8.296;2024-03-17T01:18:05;4.68;;;2.97;;
13985;SDS011;7067;51.832;8.296;2024-03-17T01:20:31;5.82;;;3.40;;
13985;SDS011;7067;51.832;8.296;2024-03-17T01:23:00;6.90;;;3.25;;
13985;SDS011;7067;51.832;8.296;2024-03-17T01:25:25;6.03;;;3.30;;
13985;SDS011;7067;51.832;8.296;2024-03-17T01:27:51;6.70;;;3.42;;
13985;SDS011;7067;51.832;8.296;2024-03-17T01:30:17;6.65;;;4.72;;
13985;SDS011;7067;51.832;8.296;2024-03-17T01:32:44;6.30;;;3.65;;
13985;SDS011;7067;51.832;8.296;2024-03-17T01:35:09;3.53;;;3.22;;
13985;SDS011;7067;51.832;8.296;2024-03-17T01:37:35;6.50;;;3.55;;
13985;SDS011;7067;51.832;8.296;2024-03-17T01:40:00;5.30;;;3.50;;
13985;SDS011;7067;51.832;8.296;2024-03-17T01:42:25;10.23;;;3.85;;
13985;SDS011;7067;51.832;8.296;2024-03-17T01:44:51;5.68;;;3.97;;
13985;SDS011;7067;51.832;8.296;2024-03-17T01:47:17;4.07;;;3.20;;
13985;SDS011;7067;51.832;8.296;2024-03-17T01:49:44;7.72;;;3.63;;
13985;SDS011;7067;51.832;8.296;2024-03-17T01:52:12;4.45;;;4.05;;
13985;SDS011;7067;51.832;8.296;2024-03-17T01:54:39;8.10;;;4.07;;
13985;SDS011;7067;51.832;8.296;2024-03-17T01:57:05;5.57;;;3.90;;
13985;SDS011;7067;51.832;8.296;2024-03-17T01:59:30;5.63;;;3.72;;
13985;SDS011;7067;51.832;8.296;2024-03-17T02:01:56;4.20;;;3.70;;
13985;SDS011;7067;51.832;8.296;2024-03-17T02:04:22;7.25;;;3.83;;
13985;SDS011;7067;51.832;8.296;2024-03-17T02:06:47;9.75;;;4.82;;
13985;SDS011;7067;51.832;8.296;2024-03-17T02:09:12;4.63;;;3.67;;
13985;SDS011;7067;51.832;8.296;2024-03-17T02:11:38;5.20;;;3.33;;
13985;SDS011;7067;51.832;8.296;2024-03-17T02:14:03;6.00;;;3.80;;
13985;SDS011;7067;51.832;8.296;2024-03-17T02:16:31;6.45;;;4.03;;
13985;SDS011;7067;51.832;8.296;2024-03-17T02:18:56;5.95;;;3.70;;
13985;SDS011;7067;51.832;8.296;2024-03-17T02:21:23;7.75;;;3.65;;
13985;SDS011;7067;51.832;8.296;2024-03-17T02:23:49;9.40;;;5.70;;
13985;SDS011;7067;51.832;8.296;2024-03-17T02:26:15;4.82;;;4.28;;
13985;SDS011;7067;51.832;8.296;2024-03-17T02:28:41;5.93;;;4.57;;
13985;SDS011;7067;51.832;8.296;2024-03-17T02:31:07;7.65;;;4.50;;
13985;SDS011;7067;51.832;8.296;2024-03-17T02:33:33;6.07;;;4.18;;
13985;SDS011;7067;51.832;8.296;2024-03-17T02:35:59;9.48;;;4.30;;
13985;SDS011;7067;51.832;8.296;2024-03-17T02:38:24;10.32;;;4.43;;
13985;SDS011;7067;51.832;8.296;2024-03-17T02:41:08;9.98;;;4.75;;
13985;SDS011;7067;51.832;8.296;2024-03-17T02:43:34;4.65;;;3.63;;
13985;SDS011;7067;51.832;8.296;2024-03-17T02:46:00;5.65;;;4.40;;
13985;SDS011;7067;51.832;8.296;2024-03-17T02:48:29;7.05;;;4.38;;
13985;SDS011;7067;51.832;8.296;2024-03-17T02:50:55;5.53;;;4.07;;
13985;SDS011;7067;51.832;8.296;2024-03-17T02:53:21;6.68;;;4.63;;
13985;SDS011;7067;51.832;8.296;2024-03-17T02:55:46;5.15;;;4.45;;
13985;SDS011;7067;51.832;8.296;2024-03-17T02:58:11;5.10;;;4.60;;
13985;SDS011;7067;51.832;8.296;2024-03-17T03:00:37;6.95;;;4.40;;
13985;SDS011;7067;51.832;8.296;2024-03-17T03:03:02;5.72;;;4.15;;
13985;SDS011;7067;51.832;8.296;2024-03-17T03:05:27;4.65;;;4.25;;
13985;SDS011;7067;51.832;8.296;2024-03-17T03:07:53;5.35;;;4.22;;
13985;SDS011;7067;51.832;8.296;2024-03-17T03:10:18;5.93;;;4.00;;
13985;SDS011;7067;51.832;8.296;2024-03-17T03:12:44;4.30;;;3.83;;
13985;SDS011;7067;51.832;8.296;2024-03-17T03:15:09;5.18;;;4.30;;
13985;SDS011;7067;51.832;8.296;2024-03-17T03:17:35;8.68;;;4.65;;
13985;SDS011;7067;51.832;8.296;2024-03-17T03:20:00;6.75;;;4.57;;
13985;SDS011;7067;51.832;8.296;2024-03-17T03:22:26;7.28;;;4.50;;
13985;SDS011;7067;51.832;8.296;2024-03-17T03:24:51;7.72;;;4.47;;
13985;SDS011;7067;51.832;8.296;2024-03-17T03:27:17;7.68;;;4.18;;
13985;SDS011;7067;51.832;8.296;2024-03-17T03:29:45;5.53;;;4.70;;
13985;SDS011;7067;51.832;8.296;2024-03-17T03:32:10;5.97;;;4.30;;
13985;SDS011;7067;51.832;8.296;2024-03-17T03:34:36;6.30;;;4.70;;
13985;SDS011;7067;51.832;8.296;2024-03-17T03:37:01;5.67;;;4.13;;
13985;SDS011;7067;51.832;8.296;2024-03-17T03:39:27;6.10;;;4.23;;
13985;SDS011;7067;51.832;8.296;2024-03-17T03:41:57;9.90;;;4.72;;
13985;SDS011;7067;51.832;8.296;2024-03-17T03:44:22;5.47;;;4.43;;
13985;SDS011;7067;51.832;8.296;2024-03-17T03:46:47;8.00;;;5.20;;
13985;SDS011;7067;51.832;8.296;2024-03-17T03:49:13;5.53;;;4.72;;
13985;SDS011;7067;51.832;8.296;2024-03-17T03:51:38;5.60;;;5.07;;
13985;SDS011;7067;51.832;8.296;2024-03-17T03:54:04;6.80;;;4.45;;
13985;SDS011;7067;51.832;8.296;2024-03-17T03:56:31;6.17;;;4.77;;
13985;SDS011;7067;51.832;8.296;2024-03-17T03:58:57;5.60;;;5.10;;
13985;SDS011;7067;51.832;8.296;2024-03-17T04:01:22;9.80;;;5.93;;
13985;SDS011;7067;51.832;8.296;2024-03-17T04:03:47;5.73;;;5.13;;
13985;SDS011;7067;51.832;8.296;2024-03-17T04:06:16;5.27;;;4.77;;
13985;SDS011;7067;51.832;8.296;2024-03-17T04:08:42;7.33;;;4.80;;
13985;SDS011;7067;51.832;8.296;2024-03-17T04:11:07;5.27;;;4.77;;
13985;SDS011;7067;51.832;8.296;2024-03-17T04:13:33;6.50;;;4.90;;
13985;SDS011;7067;51.832;8.296;2024-03-17T04:16:00;6.10;;;5.10;;
13985;SDS011;7067;51.832;8.296;2024-03-17T04:18:26;7.03;;;5.07;;
13985;SDS011;7067;51.832;8.296;2024-03-17T04:20:55;6.37;;;4.80;;
13985;SDS011;7067;51.832;8.296;2024-03-17T04:23:21;5.60;;;4.67;;
13985;SDS011;7067;51.832;8.296;2024-03-17T04:25:46;6.55;;;4.90;;
13985;SDS011;7067;51.832;8.296;2024-03-17T04:28:13;6.43;;;5.07;;
13985;SDS011;7067;51.832;8.296;2024-03-17T04:30:39;6.07;;;4.83;;
13985;SDS011;7067;51.832;8.296;2024-03-17T04:33:04;7.27;;;5.20;;
13985;SDS011;7067;51.832;8.296;2024-03-17T04:35:31;5.33;;;4.63;;
13985;SDS011;7067;51.832;8.296;2024-03-17T04:38:00;7.05;;;4.22;;
13985;SDS011;7067;51.832;8.296;2024-03-17T04:40:26;9.50;;;5.03;;
13985;SDS011;7067;51.832;8.296;2024-03-17T04:42:51;8.10;;;5.00;;
13985;SDS011;7067;51.832;8.296;2024-03-17T04:45:16;6.40;;;4.93;;
13985;SDS011;7067;51.832;8.296;2024-03-17T04:47:42;5.50;;;4.93;;
13985;SDS011;7067;51.832;8.296;2024-03-17T04:50:08;7.07;;;5.13;;
13985;SDS011;7067;51.832;8.296;2024-03-17T04:52:33;9.40;;;6.50;;
13985;SDS011;7067;51.832;8.296;2024-03-17T04:54:59;6.73;;;5.77;;
13985;SDS011;7067;51.832;8.296;2024-03-17T04:57:24;5.63;;;5.13;;
13985;SDS011;7067;51.832;8.296;2024-03-17T04:59:50;7.77;;;5.37;;
13985;SDS011;7067;51.832;8.296;2024-03-17T05:02:15;9.53;;;5.60;;
13985;SDS011;7067;51.832;8.296;2024-03-17T05:04:40;9.02;;;6.63;;
13985;SDS011;7067;51.832;8.296;2024-03-17T05:07:07;6.47;;;5.67;;
13985;SDS011;7067;51.832;8.296;2024-03-17T05:09:34;11.82;;;6.68;;
13985;SDS011;7067;51.832;8.296;2024-03-17T05:11:59;8.45;;;6.25;;
13985;SDS011;7067;51.832;8.296;2024-03-17T05:14:25;6.90;;;6.07;;
13985;SDS011;7067;51.832;8.296;2024-03-17T05:16:51;9.17;;;6.03;;
13985;SDS011;7067;51.832;8.296;2024-03-17T05:19:17;8.18;;;6.38;;
13985;SDS011;7067;51.832;8.296;2024-03-17T05:21:43;7.43;;;5.78;;
13985;SDS011;7067;51.832;8.296;2024-03-17T05:24:10;8.63;;;5.80;;
13985;SDS011;7067;51.832;8.296;2024-03-17T05:26:36;8.55;;;6.25;;
13985;SDS011;7067;51.832;8.296;2024-03-17T05:29:01;11.43;;;6.50;;
13985;SDS011;7067;51.832;8.296;2024-03-17T05:31:26;8.05;;;5.85;;
13985;SDS011;7067;51.832;8.296;2024-03-17T05:33:52;8.30;;;6.53;;
13985;SDS011;7067;51.832;8.296;2024-03-17T05:36:18;8.87;;;5.87;;
13985;SDS011;7067;51.832;8.296;2024-03-17T05:38:45;10.40;;;6.83;;
13985;SDS011;7067;51.832;8.296;2024-03-17T05:41:10;8.83;;;6.73;;
13985;SDS011;7067;51.832;8.296;2024-03-17T05:43:36;8.57;;;6.28;;
13985;SDS011;7067;51.832;8.296;2024-03-17T05:46:06;10.32;;;7.43;;
13985;SDS011;7067;51.832;8.296;2024-03-17T05:48:35;9.67;;;7.50;;
13985;SDS011;7067;51.832;8.296;2024-03-17T05:51:04;11.90;;;7.78;;
13985;SDS011;7067;51.832;8.296;2024-03-17T05:53:33;12.48;;;7.55;;
13985;SDS011;7067;51.832;8.296;2024-03-17T05:55:59;13.87;;;7.47;;
13985;SDS011;7067;51.832;8.296;2024-03-17T05:58:25;13.73;;;7.63;;
13985;SDS011;7067;51.832;8.296;2024-03-17T06:00:50;10.57;;;8.47;;
13985;SDS011;7067;51.832;8.296;2024-03-17T06:03:15;11.65;;;7.38;;
13985;SDS011;7067;51.832;8.296;2024-03-17T06:05:42;8.90;;;7.85;;
13985;SDS011;7067;51.832;8.296;2024-03-17T06:08:08;10.20;;;7.45;;
13985;SDS011;7067;51.832;8.296;2024-03-17T06:10:34;10.70;;;8.60;;
13985;SDS011;7067;51.832;8.296;2024-03-17T06:13:01;10.30;;;7.88;;
13985;SDS011;7067;51.832;8.296;2024-03-17T06:15:27;10.70;;;8.10;;
13985;SDS011;7067;51.832;8.296;2024-03-17T06:17:52;10.88;;;7.32;;
13985;SDS011;7067;51.832;8.296;2024-03-17T06:20:19;10.00;;;8.05;;
13985;SDS011;7067;51.832;8.296;2024-03-17T06:22:45;10.60;;;7.75;;
13985;SDS011;7067;51.832;8.296;2024-03-17T06:25:11;9.50;;;7.80;;
13985;SDS011;7067;51.832;8.296;2024-03-17T06:27:36;8.85;;;7.53;;
13985;SDS011;7067;51.832;8.296;2024-03-17T06:30:02;10.23;;;8.55;;
13985;SDS011;7067;51.832;8.296;2024-03-17T06:32:31;11.35;;;8.13;;
13985;SDS011;7067;51.832;8.296;2024-03-17T06:34:57;22.40;;;8.40;;
13985;SDS011;7067;51.832;8.296;2024-03-17T06:37:23;12.43;;;8.30;;
13985;SDS011;7067;51.832;8.296;2024-03-17T06:39:49;10.23;;;8.07;;
13985;SDS011;7067;51.832;8.296;2024-03-17T06:42:14;12.90;;;8.02;;
13985;SDS011;7067;51.832;8.296;2024-03-17T06:44:40;12.32;;;8.73;;
13985;SDS011;7067;51.832;8.296;2024-03-17T06:47:05;10.63;;;9.10;;
13985;SDS011;7067;51.832;8.296;2024-03-17T06:49:31;12.05;;;8.10;;
13985;SDS011;7067;51.832;8.296;2024-03-17T06:51:56;9.82;;;8.40;;
13985;SDS011;7067;51.832;8.296;2024-03-17T06:54:21;11.05;;;8.95;;
13985;SDS011;7067;51.832;8.296;2024-03-17T06:56:47;11.43;;;8.75;;
13985;SDS011;7067;51.832;8.296;2024-03-17T06:59:12;13.05;;;7.70;;
13985;SDS011;7067;51.832;8.296;2024-03-17T07:01:37;11.70;;;8.77;;
13985;SDS011;7067;51.832;8.296;2024-03-17T07:04:03;13.20;;;8.82;;
13985;SDS011;7067;51.832;8.296;2024-03-17T07:06:28;13.65;;;9.45;;
13985;SDS011;7067;51.832;8.296;2024-03-17T07:08:54;11.20;;;9.57;;
13985;SDS011;7067;51.832;8.296;2024-03-17T07:11:20;13.02;;;10.23;;
13985;SDS011;7067;51.832;8.296;2024-03-17T07:13:48;12.32;;;9.52;;
13985;SDS011;7067;51.832;8.296;2024-03-17T07:16:16;10.80;;;9.45;;
13985;SDS011;7067;51.832;8.296;2024-03-17T07:18:41;9.68;;;8.68;;
13985;SDS011;7067;51.832;8.296;2024-03-17T07:21:08;13.38;;;9.15;;
13985;SDS011;7067;51.832;8.296;2024-03-17T07:23:35;10.82;;;9.15;;
13985;SDS011;7067;51.832;8.296;2024-03-17T07:26:01;9.10;;;8.23;;
13985;SDS011;7067;51.832;8.296;2024-03-17T07:28:28;13.55;;;9.35;;
13985;SDS011;7067;51.832;8.296;2024-03-17T07:30:54;14.20;;;9.50;;
13985;SDS011;7067;51.832;8.296;2024-03-17T07:33:21;11.98;;;9.45;;
13985;SDS011;7067;51.832;8.296;2024-03-17T07:35:47;14.25;;;10.18;;
13985;SDS011;7067;51.832;8.296;2024-03-17T07:38:13;10.60;;;9.50;;
13985;SDS011;7067;51.832;8.296;2024-03-17T07:40:39;11.88;;;9.93;;
13985;SDS011;7067;51.832;8.296;2024-03-17T07:43:04;11.40;;;10.05;;
13985;SDS011;7067;51.832;8.296;2024-03-17T07:45:30;12.57;;;9.75;;
13985;SDS011;7067;51.832;8.296;2024-03-17T07:47:55;12.98;;;10.02;;
13985;SDS011;7067;51.832;8.296;2024-03-17T07:50:20;12.65;;;11.32;;
13985;SDS011;7067;51.832;8.296;2024-03-17T07:52:46;12.93;;;9.70;;
13985;SDS011;7067;51.832;8.296;2024-03-17T07:55:11;11.50;;;9.43;;
13985;SDS011;7067;51.832;8.296;2024-03-17T07:57:36;14.70;;;10.02;;
13985;SDS011;7067;51.832;8.296;2024-03-17T08:00:02;10.80;;;9.65;;
13985;SDS011;7067;51.832;8.296;2024-03-17T08:02:28;16.63;;;12.00;;
13985;SDS011;7067;51.832;8.296;2024-03-17T08:04:54;12.18;;;9.98;;
13985;SDS011;7067;51.832;8.296;2024-03-17T08:07:19;10.75;;;9.30;;
13985;SDS011;7067;51.832;8.296;2024-03-17T08:09:44;12.00;;;9.88;;
13985;SDS011;7067;51.832;8.296;2024-03-17T08:12:10;12.38;;;9.82;;
13985;SDS011;7067;51.832;8.296;2024-03-17T08:14:35;12.10;;;9.32;;
13985;SDS011;7067;51.832;8.296;2024-03-17T08:17:01;10.60;;;9.50;;
13985;SDS011;7067;51.832;8.296;2024-03-17T08:19:26;11.88;;;9.00;;
13985;SDS011;7067;51.832;8.296;2024-03-17T08:21:51;11.27;;;8.93;;
13985;SDS011;7067;51.832;8.296;2024-03-17T08:24:17;14.35;;;9.63;;
13985;SDS011;7067;51.832;8.296;2024-03-17T08:26:42;16.65;;;10.60;;
13985;SDS011;7067;51.832;8.296;2024-03-17T08:29:10;10.02;;;8.85;;
13985;SDS011;7067;51.832;8.296;2024-03-17T08:31:36;11.05;;;8.90;;
13985;SDS011;7067;51.832;8.296;2024-03-17T08:34:02;11.77;;;8.77;;
13985;SDS011;7067;51.832;8.296;2024-03-17T08:36:27;10.98;;;9.15;;
13985;SDS011;7067;51.832;8.296;2024-03-17T08:38:53;11.88;;;8.88;;
13985;SDS011;7067;51.832;8.296;2024-03-17T08:41:20;9.20;;;8.30;;
13985;SDS011;7067;51.832;8.296;2024-03-17T08:43:45;10.35;;;8.70;;
13985;SDS011;7067;51.832;8.296;2024-03-17T08:46:11;11.80;;;9.13;;
13985;SDS011;7067;51.832;8.296;2024-03-17T08:48:38;12.48;;;9.30;;
13985;SDS011;7067;51.832;8.296;2024-03-17T08:51:05;9.38;;;8.38;;
13985;SDS011;7067;51.832;8.296;2024-03-17T08:53:31;9.15;;;8.25;;
13985;SDS011;7067;51.832;8.296;2024-03-17T08:55:57;8.38;;;7.68;;
13985;SDS011;7067;51.832;8.296;2024-03-17T08:58:23;10.98;;;8.25;;
13985;SDS011;7067;51.832;8.296;2024-03-17T09:00:49;11.13;;;8.20;;
13985;SDS011;7067;51.832;8.296;2024-03-17T09:03:14;9.20;;;8.07;;
13985;SDS011;7067;51.832;8.296;2024-03-17T09:05:41;9.20;;;8.02;;
13985;SDS011;7067;51.832;8.296;2024-03-17T09:08:13;12.63;;;8.00;;
13985;SDS011;7067;51.832;8.296;2024-03-17T09:10:40;9.75;;;8.18;;
13985;SDS011;7067;51.832;8.296;2024-03-17T09:13:06;10.15;;;9.25;;
13985;SDS011;7067;51.832;8.296;2024-03-17T09:15:32;9.00;;;8.10;;
13985;SDS011;7067;51.832;8.296;2024-03-17T09:17:57;9.20;;;8.40;;
13985;SDS011;7067;51.832;8.296;2024-03-17T09:20:23;9.38;;;8.40;;
13985;SDS011;7067;51.832;8.296;2024-03-17T09:22:49;10.30;;;8.40;;
13985;SDS011;7067;51.832;8.296;2024-03-17T09:25:14;11.18;;;9.00;;
13985;SDS011;7067;51.832;8.296;2024-03-17T09:27:40;10.35;;;9.07;;
13985;SDS011;7067;51.832;8.296;2024-03-17T09:30:06;11.15;;;9.25;;
13985;SDS011;7067;51.832;8.296;2024-03-17T09:32:34;9.60;;;8.68;;
13985;SDS011;7067;51.832;8.296;2024-03-17T09:35:03;9.50;;;8.70;;
13985;SDS011;7067;51.832;8.296;2024-03-17T09:37:29;12.15;;;10.40;;
13985;SDS011;7067;51.832;8.296;2024-03-17T09:39:56;10.02;;;9.02;;
13985;SDS011;7067;51.832;8.296;2024-03-17T09:42:31;10.40;;;9.50;;
13985;SDS011;7067;51.832;8.296;2024-03-17T09:44:57;9.80;;;8.93;;
13985;SDS011;7067;51.832;8.296;2024-03-17T09:47:23;11.68;;;10.38;;
13985;SDS011;7067;51.832;8.296;2024-03-17T09:49:49;10.50;;;9.60;;
13985;SDS011;7067;51.832;8.296;2024-03-17T09:52:25;11.93;;;9.73;;
13985;SDS011;7067;51.832;8.296;2024-03-17T09:55:00;11.02;;;10.02;;
13985;SDS011;7067;51.832;8.296;2024-03-17T09:57:27;10.55;;;9.52;;
13985;SDS011;7067;51.832;8.296;2024-03-17T09:59:54;10.70;;;9.70;;
13985;SDS011;7067;51.832;8.296;2024-03-17T10:02:20;10.13;;;9.23;;
13985;SDS011;7067;51.832;8.296;2024-03-17T10:04:46;12.07;;;9.75;;
13985;SDS011;7067;51.832;8.296;2024-03-17T10:07:11;11.73;;;10.13;;
13985;SDS011;7067;51.832;8.296;2024-03-17T10:09:37;13.38;;;11.15;;
13985;SDS011;7067;51.832;8.296;2024-03-17T10:12:04;10.18;;;9.05;;
13985;SDS011;7067;51.832;8.296;2024-03-17T10:14:30;12.32;;;11.00;;
13985;SDS011;7067;51.832;8.296;2024-03-17T10:16:56;12.75;;;10.80;;
13985;SDS011;7067;51.832;8.296;2024-03-17T10:19:22;11.65;;;10.43;;
13985;SDS011;7067;51.832;8.296;2024-03-17T10:21:59;15.80;;;10.85;;
13985;SDS011;7067;51.832;8.296;2024-03-17T10:24:28;12.85;;;11.50;;
13985;SDS011;7067;51.832;8.296;2024-03-17T10:26:57;12.38;;;11.35;;
13985;SDS011;7067;51.832;8.296;2024-03-17T10:31:59;13.93;;;11.65;;
13985;SDS011;7067;51.832;8.296;2024-03-17T10:34:27;13.60;;;12.20;;
13985;SDS011;7067;51.832;8.296;2024-03-17T10:39:31;12.27;;;11.15;;
13985;SDS011;7067;51.832;8.296;2024-03-17T10:41:58;12.35;;;11.20;;
13985;SDS011;7067;51.832;8.296;2024-03-17T10:44:25;14.57;;;11.77;;
13985;SDS011;7067;51.832;8.296;2024-03-17T10:46:55;11.93;;;10.93;;
13985;SDS011;7067;51.832;8.296;2024-03-17T10:49:23;13.02;;;11.73;;
13985;SDS011;7067;51.832;8.296;2024-03-17T10:51:59;13.02;;;11.48;;
13985;SDS011;7067;51.832;8.296;2024-03-17T10:54:45;11.00;;;10.00;;
13985;SDS011;7067;51.832;8.296;2024-03-17T11:00:00;11.80;;;10.65;;
13985;SDS011;7067;51.832;8.296;2024-03-17T11:02:32;12.30;;;10.55;;
13985;SDS011;7067;51.832;8.296;2024-03-17T11:05:00;13.05;;;11.43;;
13985;SDS011;7067;51.832;8.296;2024-03-17T11:07:27;11.30;;;10.15;;
13985;SDS011;7067;51.832;8.296;2024-03-17T11:09:54;11.23;;;10.10;;
13985;SDS011;7067;51.832;8.296;2024-03-17T11:17:43;12.25;;;10.77;;
13985;SDS011;7067;51.832;8.296;2024-03-17T11:20:43;11.52;;;10.43;;
13985;SDS011;7067;51.832;8.296;2024-03-17T11:23:02;11.63;;;10.50;;
13985;SDS011;7067;51.832;8.296;2024-03-17T11:28:08;11.77;;;10.52;;
13985;SDS011;7067;51.832;8.296;2024-03-17T11:33:46;11.18;;;10.10;;
13985;SDS011;7067;51.832;8.296;2024-03-17T11:41:39;10.50;;;9.43;;
13985;SDS011;7067;51.832;8.296;2024-03-17T11:49:20;10.38;;;9.32;;
13985;SDS011;7067;51.832;8.296;2024-03-17T11:51:46;9.02;;;8.43;;
13985;SDS011;7067;51.832;8.296;2024-03-17T11:54:19;10.50;;;9.50;;
13985;SDS011;7067;51.832;8.296;2024-03-17T11:56:49;9.75;;;8.93;;
13985;SDS011;7067;51.832;8.296;2024-03-17T11:59:15;10.32;;;9.25;;
13985;SDS011;7067;51.832;8.296;2024-03-17T12:01:48;10.50;;;9.55;;
13985;SDS011;7067;51.832;8.296;2024-03-17T12:04:14;11.95;;;10.93;;
13985;SDS011;7067;51.832;8.296;2024-03-17T12:09:16;11.15;;;10.05;;
13985;SDS011;7067;51.832;8.296;2024-03-17T12:14:24;8.30;;;7.45;;
13985;SDS011;7067;51.832;8.296;2024-03-17T12:16:53;8.88;;;7.97;;
13985;SDS011;7067;51.832;8.296;2024-03-17T12:19:22;10.07;;;8.52;;
13985;SDS011;7067;51.832;8.296;2024-03-17T12:21:49;8.57;;;7.78;;
13985;SDS011;7067;51.832;8.296;2024-03-17T12:24:17;7.88;;;7.25;;
13985;SDS011;7067;51.832;8.296;2024-03-17T12:26:44;8.02;;;7.28;;
13985;SDS011;7067;51.832;8.296;2024-03-17T12:31:52;9.23;;;8.43;;
13985;SDS011;7067;51.832;8.296;2024-03-17T12:34:18;8.07;;;7.40;;
13985;SDS011;7067;51.832;8.296;2024-03-17T12:36:44;8.95;;;8.15;;
13985;SDS011;7067;51.832;8.296;2024-03-17T12:39:11;10.07;;;9.07;;
13985;SDS011;7067;51.832;8.296;2024-03-17T12:41:43;10.02;;;7.82;;
13985;SDS011;7067;51.832;8.296;2024-03-17T12:44:19;8.15;;;7.45;;
13985;SDS011;7067;51.832;8.296;2024-03-17T12:46:48;9.02;;;8.38;;
13985;SDS011;7067;51.832;8.296;2024-03-17T12:49:13;7.82;;;7.18;;
13985;SDS011;7067;51.832;8.296;2024-03-17T12:51:38;8.70;;;7.97;;
13985;SDS011;7067;51.832;8.296;2024-03-17T12:54:14;9.10;;;8.45;;
13985;SDS011;7067;51.832;8.296;2024-03-17T12:56:40;7.13;;;6.63;;
13985;SDS011;7067;51.832;8.296;2024-03-17T12:59:23;7.25;;;6.65;;
13985;SDS011;7067;51.832;8.296;2024-03-17T13:02:11;7.32;;;6.72;;
13985;SDS011;7067;51.832;8.296;2024-03-17T13:04:37;6.72;;;6.13;;
13985;SDS011;7067;51.832;8.296;2024-03-17T13:07:10;5.95;;;5.45;;
13985;SDS011;7067;51.832;8.296;2024-03-17T13:09:36;8.43;;;5.45;;
13985;SDS011;7067;51.832;8.296;2024-03-17T13:12:01;6.05;;;5.25;;
13985;SDS011;7067;51.832;8.296;2024-03-17T13:14:27;5.95;;;5.55;;
13985;SDS011;7067;51.832;8.296;2024-03-17T13:16:52;6.10;;;5.60;;
13985;SDS011;7067;51.832;8.296;2024-03-17T13:19:17;6.22;;;5.72;;
13985;SDS011;7067;51.832;8.296;2024-03-17T13:21:45;6.75;;;6.13;;
13985;SDS011;7067;51.832;8.296;2024-03-17T13:24:10;6.32;;;5.72;;
13985;SDS011;7067;51.832;8.296;2024-03-17T13:26:36;6.18;;;5.68;;
13985;SDS011;7067;51.832;8.296;2024-03-17T13:29:01;6.43;;;5.82;;
13985;SDS011;7067;51.832;8.296;2024-03-17T13:31:27;6.70;;;6.10;;
13985;SDS011;7067;51.832;8.296;2024-03-17T13:33:52;7.05;;;6.45;;
13985;SDS011;7067;51.832;8.296;2024-03-17T13:36:17;6.82;;;6.22;;
13985;SDS011;7067;51.832;8.296;2024-03-17T13:38:42;7.35;;;6.85;;
13985;SDS011;7067;51.832;8.296;2024-03-17T13:41:08;6.35;;;5.80;;
13985;SDS011;7067;51.832;8.296;2024-03-17T13:43:34;6.60;;;6.10;;
13985;SDS011;7067;51.832;8.296;2024-03-17T13:45:59;7.00;;;5.72;;
13985;SDS011;7067;51.832;8.296;2024-03-17T13:48:24;7.25;;;6.53;;
13985;SDS011;7067;51.832;8.296;2024-03-17T13:50:50;6.30;;;5.72;;
13985;SDS011;7067;51.832;8.296;2024-03-17T13:53:15;7.03;;;6.32;;
13985;SDS011;7067;51.832;8.296;2024-03-17T13:55:40;6.30;;;5.90;;
13985;SDS011;7067;51.832;8.296;2024-03-17T13:58:06;6.00;;;5.50;;
13985;SDS011;7067;51.832;8.296;2024-03-17T14:00:32;5.78;;;5.38;;
13985;SDS011;7067;51.832;8.296;2024-03-17T14:03:01;6.50;;;6.00;;
13985;SDS011;7067;51.832;8.296;2024-03-17T14:05:27;6.57;;;6.03;;
13985;SDS011;7067;51.832;8.296;2024-03-17T14:07:53;5.95;;;5.47;;
13985;SDS011;7067;51.832;8.296;2024-03-17T14:10:19;6.05;;;5.47;;
13985;SDS011;7067;51.832;8.296;2024-03-17T14:12:45;6.22;;;5.43;;
13985;SDS011;7067;51.832;8.296;2024-03-17T14:15:11;6.40;;;5.82;;
13985;SDS011;7067;51.832;8.296;2024-03-17T14:17:37;6.70;;;6.03;;
13985;SDS011;7067;51.832;8.296;2024-03-17T14:20:06;7.45;;;6.63;;
13985;SDS011;7067;51.832;8.296;2024-03-17T14:22:38;8.40;;;6.23;;
13985;SDS011;7067;51.832;8.296;2024-03-17T14:25:08;6.88;;;6.32;;
13985;SDS011;7067;51.832;8.296;2024-03-17T14:27:37;7.22;;;6.63;;
13985;SDS011;7067;51.832;8.296;2024-03-17T14:30:03;8.55;;;6.95;;
13985;SDS011;7067;51.832;8.296;2024-03-17T14:32:29;7.07;;;6.38;;
13985;SDS011;7067;51.832;8.296;2024-03-17T14:34:54;7.75;;;6.97;;
13985;SDS011;7067;51.832;8.296;2024-03-17T14:37:20;7.65;;;6.38;;
13985;SDS011;7067;51.832;8.296;2024-03-17T14:39:47;7.00;;;6.50;;
13985;SDS011;7067;51.832;8.296;2024-03-17T14:42:12;7.10;;;6.50;;
13985;SDS011;7067;51.832;8.296;2024-03-17T14:44:38;7.30;;;6.55;;
13985;SDS011;7067;51.832;8.296;2024-03-17T14:47:03;8.18;;;6.55;;
13985;SDS011;7067;51.832;8.296;2024-03-17T14:49:32;7.55;;;6.95;;
13985;SDS011;7067;51.832;8.296;2024-03-17T14:51:58;7.38;;;6.70;;
13985;SDS011;7067;51.832;8.296;2024-03-17T14:54:23;8.05;;;7.45;;
13985;SDS011;7067;51.832;8.296;2024-03-17T14:56:48;8.85;;;7.93;;
13985;SDS011;7067;51.832;8.296;2024-03-17T14:59:14;9.70;;;7.90;;
13985;SDS011;7067;51.832;8.296;2024-03-17T15:01:43;8.57;;;7.72;;
13985;SDS011;7067;51.832;8.296;2024-03-17T15:04:10;7.88;;;7.20;;
13985;SDS011;7067;51.832;8.296;2024-03-17T15:06:35;9.35;;;7.90;;
13985;SDS011;7067;51.832;8.296;2024-03-17T15:09:01;8.10;;;7.45;;
13985;SDS011;7067;51.832;8.296;2024-03-17T15:11:27;9.38;;;8.18;;
13985;SDS011;7067;51.832;8.296;2024-03-17T15:13:53;8.05;;;7.35;;
13985;SDS011;7067;51.832;8.296;2024-03-17T15:16:18;7.78;;;7.15;;
13985;SDS011;7067;51.832;8.296;2024-03-17T15:18:44;8.32;;;7.50;;
13985;SDS011;7067;51.832;8.296;2024-03-17T15:21:09;7.63;;;6.88;;
13985;SDS011;7067;51.832;8.296;2024-03-17T15:23:35;7.78;;;7.07;;
13985;SDS011;7067;51.832;8.296;2024-03-17T15:26:04;8.75;;;7.93;;
13985;SDS011;7067;51.832;8.296;2024-03-17T15:28:40;9.15;;;8.23;;
13985;SDS011;7067;51.832;8.296;2024-03-17T15:31:06;10.02;;;8.20;;